createdAt,value
2023-04-09T00:00:37.360Z,8.45
2023-04-09T00:01:37.398Z,8.43
2023-04-09T00:02:37.383Z,8.41
2023-04-09T00:03:37.376Z,8.37
2023-04-09T00:04:37.371Z,8.38
2023-04-09T00:05:37.455Z,8.30
2023-04-09T00:06:37.325Z,8.29
2023-04-09T00:07:37.304Z,8.29
2023-04-09T00:08:37.298Z,8.34
2023-04-09T00:09:37.225Z,8.33
2023-04-09T00:10:37.286Z,8.28
2023-04-09T00:11:37.234Z,8.29
2023-04-09T00:12:37.450Z,8.28
2023-04-09T00:13:39.698Z,8.26
2023-04-09T00:14:37.211Z,8.26
2023-04-09T00:15:37.156Z,8.20
2023-04-09T00:16:37.593Z,8.16
2023-04-09T00:17:37.166Z,8.16
2023-04-09T00:18:44.904Z,8.12
2023-04-09T00:19:37.212Z,8.15
2023-04-09T00:20:37.158Z,8.15
2023-04-09T00:21:37.264Z,8.11
2023-04-09T00:22:38.239Z,8.10
2023-04-09T00:23:37.105Z,8.08
2023-04-09T00:24:37.079Z,8.08
2023-04-09T00:25:37.115Z,8.05
2023-04-09T00:26:37.063Z,8.04
2023-04-09T00:27:44.765Z,8.02
2023-04-09T00:28:36.970Z,8.02
2023-04-09T00:29:36.991Z,8.01
2023-04-09T00:30:37.016Z,8.02
2023-04-09T00:31:37.003Z,8.01
2023-04-09T00:32:36.971Z,8.01
2023-04-09T00:33:36.955Z,8.01
2023-04-09T00:34:36.915Z,8.02
2023-04-09T00:35:36.926Z,8.04
2023-04-09T00:36:36.961Z,8.04
2023-04-09T00:37:36.922Z,7.98
2023-04-09T00:38:36.907Z,8.00
2023-04-09T00:39:36.879Z,7.95
2023-04-09T00:40:36.900Z,7.97
2023-04-09T00:41:36.849Z,7.97
2023-04-09T00:42:36.842Z,7.92
2023-04-09T00:43:36.882Z,7.92
2023-04-09T00:44:36.836Z,7.92
2023-04-09T00:45:36.797Z,7.90
2023-04-09T00:46:36.783Z,7.87
2023-04-09T00:47:36.848Z,7.86
2023-04-09T00:48:36.793Z,7.83
2023-04-09T00:49:36.727Z,7.83
2023-04-09T00:50:36.739Z,7.85
2023-04-09T00:51:36.740Z,7.82
2023-04-09T00:52:36.803Z,7.82
2023-04-09T00:53:36.711Z,7.77
2023-04-09T00:54:36.783Z,7.71
2023-04-09T00:55:36.661Z,7.74
2023-04-09T00:56:36.677Z,7.69
2023-04-09T00:57:36.627Z,7.68
2023-04-09T00:58:36.658Z,7.63
2023-04-09T00:59:36.668Z,7.61
2023-04-09T01:00:36.678Z,7.58
2023-04-09T01:01:36.706Z,7.57
2023-04-09T01:02:36.751Z,7.55
2023-04-09T01:03:36.730Z,7.49
2023-04-09T01:04:36.645Z,7.50
2023-04-09T01:05:36.563Z,7.46
2023-04-09T01:06:36.564Z,7.42
2023-04-09T01:07:36.544Z,7.42
2023-04-09T01:08:36.507Z,7.40
2023-04-09T01:09:36.514Z,7.39
2023-04-09T01:10:36.527Z,7.39
2023-04-09T01:11:36.491Z,7.35
2023-04-09T01:12:36.524Z,7.37
2023-04-09T01:13:36.471Z,7.31
2023-04-09T01:14:36.421Z,7.28
2023-04-09T01:15:36.449Z,7.25
2023-04-09T01:16:36.487Z,7.23
2023-04-09T01:17:36.405Z,7.23
2023-04-09T01:18:36.424Z,7.23
2023-04-09T01:19:36.378Z,7.24
2023-04-09T01:20:36.372Z,7.20
2023-04-09T01:21:36.443Z,7.24
2023-04-09T01:22:36.351Z,7.20
2023-04-09T01:23:36.343Z,7.20
2023-04-09T01:24:36.330Z,7.16
2023-04-09T01:25:36.328Z,7.20
2023-04-09T01:26:36.285Z,7.17
2023-04-09T01:27:36.241Z,7.13
2023-04-09T01:28:36.267Z,7.10
2023-04-09T01:29:36.227Z,7.09
2023-04-09T01:30:36.279Z,7.05
2023-04-09T01:31:36.208Z,7.06
2023-04-09T01:32:36.230Z,7.09
2023-04-09T01:33:36.196Z,7.10
2023-04-09T01:34:36.216Z,7.06
2023-04-09T01:35:36.191Z,6.98
2023-04-09T01:36:36.194Z,6.99
2023-04-09T01:37:36.145Z,6.99
2023-04-09T01:38:36.203Z,6.98
2023-04-09T01:39:36.113Z,6.97
2023-04-09T01:40:36.145Z,6.98
2023-04-09T01:41:36.115Z,6.98
2023-04-09T01:42:36.092Z,6.97
2023-04-09T01:43:36.066Z,6.95
2023-04-09T01:44:36.085Z,6.94
2023-04-09T01:45:36.054Z,6.91
2023-04-09T01:46:36.081Z,6.87
2023-04-09T01:47:36.086Z,6.95
2023-04-09T01:48:36.041Z,6.94
2023-04-09T01:49:36.021Z,6.97
2023-04-09T01:50:36.041Z,6.94
2023-04-09T01:51:35.990Z,6.99
2023-04-09T01:52:35.982Z,6.99
2023-04-09T01:53:36.064Z,6.98
2023-04-09T01:54:35.933Z,7.05
2023-04-09T01:55:35.939Z,7.05
2023-04-09T01:56:35.915Z,7.03
2023-04-09T01:57:35.927Z,6.99
2023-04-09T01:58:35.910Z,7.05
2023-04-09T01:59:35.881Z,7.02
2023-04-09T02:00:35.853Z,7.03
2023-04-09T02:01:35.896Z,6.97
2023-04-09T02:02:35.928Z,6.98
2023-04-09T02:03:35.885Z,6.99
2023-04-09T02:04:35.818Z,6.94
2023-04-09T02:05:35.828Z,6.97
2023-04-09T02:06:35.800Z,6.91
2023-04-09T02:07:35.833Z,6.92
2023-04-09T02:08:35.758Z,6.95
2023-04-09T02:09:35.765Z,6.89
2023-04-09T02:10:35.720Z,6.91
2023-04-09T02:11:35.738Z,6.89
2023-04-09T02:12:35.710Z,6.87
2023-04-09T02:13:35.676Z,6.81
2023-04-09T02:14:35.683Z,6.84
2023-04-09T02:15:35.721Z,6.76
2023-04-09T02:16:35.701Z,6.77
2023-04-09T02:17:35.726Z,6.74
2023-04-09T02:18:35.686Z,6.71
2023-04-09T02:19:35.628Z,6.74
2023-04-09T02:20:35.637Z,6.71
2023-04-09T02:21:35.620Z,6.70
2023-04-09T02:22:35.601Z,6.64
2023-04-09T02:23:35.573Z,6.64
2023-04-09T02:24:35.607Z,6.62
2023-04-09T02:25:35.653Z,6.66
2023-04-09T02:26:35.552Z,6.61
2023-04-09T02:27:35.571Z,6.59
2023-04-09T02:28:35.511Z,6.59
2023-04-09T02:29:35.521Z,6.56
2023-04-09T02:30:35.540Z,6.55
2023-04-09T02:31:35.496Z,6.49
2023-04-09T02:32:35.471Z,6.51
2023-04-09T02:33:35.475Z,6.51
2023-04-09T02:34:35.413Z,6.41
2023-04-09T02:35:35.486Z,6.46
2023-04-09T02:36:35.423Z,6.41
2023-04-09T02:37:35.374Z,6.41
2023-04-09T02:38:35.418Z,6.43
2023-04-09T02:39:35.361Z,6.43
2023-04-09T02:40:35.350Z,6.41
2023-04-09T02:41:35.423Z,6.37
2023-04-09T02:42:35.369Z,6.37
2023-04-09T02:43:35.303Z,6.36
2023-04-09T02:44:35.321Z,6.37
2023-04-09T02:45:35.270Z,6.31
2023-04-09T02:46:35.334Z,6.34
2023-04-09T02:47:35.275Z,6.28
2023-04-09T02:48:35.275Z,6.30
2023-04-09T02:49:35.302Z,6.28
2023-04-09T02:50:35.316Z,6.31
2023-04-09T02:51:35.212Z,6.31
2023-04-09T02:52:35.259Z,6.30
2023-04-09T02:53:35.176Z,6.30
2023-04-09T02:54:35.202Z,6.21
2023-04-09T02:55:35.144Z,6.19
2023-04-09T02:56:35.169Z,6.17
2023-04-09T02:57:35.133Z,6.15
2023-04-09T02:58:35.124Z,6.19
2023-04-09T02:59:35.121Z,6.18
2023-04-09T03:00:35.117Z,6.12
2023-04-09T03:01:35.170Z,6.11
2023-04-09T03:02:35.196Z,6.12
2023-04-09T03:03:35.153Z,6.09
2023-04-09T03:04:35.067Z,6.14
2023-04-09T03:05:35.033Z,6.09
2023-04-09T03:06:35.067Z,6.09
2023-04-09T03:07:34.987Z,6.03
2023-04-09T03:08:35.021Z,6.03
2023-04-09T03:09:34.964Z,6.04
2023-04-09T03:10:34.972Z,6.03
2023-04-09T03:11:34.988Z,5.97
2023-04-09T03:12:34.961Z,5.99
2023-04-09T03:13:34.915Z,5.93
2023-04-09T03:14:35.866Z,5.90
2023-04-09T03:15:34.936Z,5.82
2023-04-09T03:16:34.920Z,5.83
2023-04-09T03:17:34.895Z,5.85
2023-04-09T03:18:34.900Z,5.81
2023-04-09T03:19:34.860Z,5.81
2023-04-09T03:20:34.815Z,5.75
2023-04-09T03:21:34.842Z,5.74
2023-04-09T03:22:34.810Z,5.75
2023-04-09T03:23:34.853Z,5.71
2023-04-09T03:24:34.774Z,5.74
2023-04-09T03:25:34.774Z,5.75
2023-04-09T03:26:34.785Z,5.74
2023-04-09T03:27:34.758Z,5.64
2023-04-09T03:28:34.740Z,5.71
2023-04-09T03:29:34.708Z,5.65
2023-04-09T03:30:34.707Z,5.64
2023-04-09T03:31:34.699Z,5.57
2023-04-09T03:32:34.717Z,5.60
2023-04-09T03:33:34.664Z,5.57
2023-04-09T03:34:34.665Z,5.56
2023-04-09T03:35:34.674Z,5.58
2023-04-09T03:36:34.661Z,5.57
2023-04-09T03:37:34.608Z,5.54
2023-04-09T03:38:34.959Z,5.49
2023-04-09T03:39:34.634Z,5.48
2023-04-09T03:40:34.576Z,5.49
2023-04-09T03:41:34.595Z,5.45
2023-04-09T03:42:34.578Z,5.42
2023-04-09T03:43:34.562Z,5.35
2023-04-09T03:44:34.568Z,5.27
2023-04-09T03:45:34.521Z,5.27
2023-04-09T03:46:34.512Z,5.24
2023-04-09T03:47:34.568Z,5.28
2023-04-09T03:48:34.455Z,5.27
2023-04-09T03:49:34.481Z,5.27
2023-04-09T03:50:34.506Z,5.24
2023-04-09T03:51:34.410Z,5.20
2023-04-09T03:52:34.451Z,5.15
2023-04-09T03:53:34.506Z,5.13
2023-04-09T03:54:34.399Z,5.13
2023-04-09T03:55:34.409Z,5.17
2023-04-09T03:56:34.387Z,5.17
2023-04-09T03:57:34.363Z,5.12
2023-04-09T03:58:34.326Z,5.07
2023-04-09T03:59:34.367Z,5.03
2023-04-09T04:00:34.328Z,5.00
2023-04-09T04:01:34.577Z,4.99
2023-04-09T04:02:34.607Z,4.88
2023-04-09T04:03:34.558Z,4.85
2023-04-09T04:04:34.631Z,4.78
2023-04-09T04:05:34.328Z,4.77
2023-04-09T04:06:34.364Z,4.77
2023-04-09T04:07:34.193Z,4.73
2023-04-09T04:08:34.476Z,4.70
2023-04-09T04:09:34.878Z,4.70
2023-04-09T04:10:34.229Z,4.62
2023-04-09T04:11:34.143Z,4.63
2023-04-09T04:12:34.288Z,4.63
2023-04-09T04:13:34.977Z,4.72
2023-04-09T04:14:34.396Z,4.69
2023-04-09T04:15:34.178Z,4.72
2023-04-09T04:16:34.211Z,4.72
2023-04-09T04:17:34.193Z,4.70
2023-04-09T04:18:34.150Z,4.66
2023-04-09T04:19:34.044Z,4.63
2023-04-09T04:20:34.060Z,4.55
2023-04-09T04:21:34.037Z,4.55
2023-04-09T04:22:34.126Z,4.62
2023-04-09T04:23:34.070Z,4.55
2023-04-09T04:24:33.976Z,4.52
2023-04-09T04:25:34.328Z,4.54
2023-04-09T04:26:34.303Z,4.59
2023-04-09T04:27:34.737Z,4.62
2023-04-09T04:28:34.436Z,4.63
2023-04-09T04:29:34.461Z,4.59
2023-04-09T04:30:34.042Z,4.59
2023-04-09T04:31:34.569Z,4.54
2023-04-09T04:32:33.935Z,4.47
2023-04-09T04:33:33.854Z,4.44
2023-04-09T04:34:33.867Z,4.41
2023-04-09T04:35:34.031Z,4.41
2023-04-09T04:36:34.195Z,4.41
2023-04-09T04:37:34.178Z,4.42
2023-04-09T04:38:33.913Z,4.54
2023-04-09T04:39:33.866Z,4.62
2023-04-09T04:40:33.770Z,4.73
2023-04-09T04:41:33.814Z,4.78
2023-04-09T04:42:34.012Z,4.80
2023-04-09T04:43:33.757Z,4.78
2023-04-09T04:44:33.745Z,4.82
2023-04-09T04:45:33.905Z,4.82
2023-04-09T04:46:33.879Z,4.84
2023-04-09T04:47:37.124Z,4.91
2023-04-09T04:48:33.868Z,4.89
2023-04-09T04:49:33.675Z,4.91
2023-04-09T04:50:33.744Z,4.86
2023-04-09T04:51:36.445Z,4.88
2023-04-09T04:52:33.603Z,4.86
2023-04-09T04:53:33.598Z,4.92
2023-04-09T04:54:33.606Z,4.89
2023-04-09T04:55:33.581Z,4.92
2023-04-09T04:56:33.586Z,4.94
2023-04-09T04:57:33.600Z,4.91
2023-04-09T04:58:33.633Z,4.94
2023-04-09T04:59:33.611Z,4.92
2023-04-09T05:00:33.724Z,4.96
2023-04-09T05:01:33.638Z,4.92
2023-04-09T05:02:33.627Z,4.89
2023-04-09T05:03:33.658Z,4.92
2023-04-09T05:04:34.014Z,4.92
2023-04-09T05:05:33.657Z,4.91
2023-04-09T05:06:33.453Z,4.89
2023-04-09T05:07:33.442Z,4.89
2023-04-09T05:08:33.398Z,4.86
2023-04-09T05:09:37.194Z,4.85
2023-04-09T05:10:33.483Z,4.86
2023-04-09T05:11:33.557Z,4.89
2023-04-09T05:12:33.680Z,4.94
2023-04-09T05:13:33.379Z,4.92
2023-04-09T05:14:33.446Z,4.91
2023-04-09T05:15:33.444Z,4.86
2023-04-09T05:16:33.383Z,4.88
2023-04-09T05:17:36.892Z,4.86
2023-04-09T05:18:37.982Z,4.84
2023-04-09T05:19:33.250Z,4.84
2023-04-09T05:20:33.424Z,4.88
2023-04-09T05:21:45.141Z,4.86
2023-04-09T05:22:33.280Z,4.89
2023-04-09T05:23:33.222Z,4.89
2023-04-09T05:24:33.247Z,4.88
2023-04-09T05:26:57.230Z,4.92
2023-04-09T05:27:58.076Z,4.96
2023-04-09T05:28:57.654Z,4.99
2023-04-09T05:29:57.336Z,5.00
2023-04-09T05:30:56.839Z,5.02
2023-04-09T05:32:00.403Z,5.04
2023-04-09T05:32:59.496Z,5.03
2023-04-09T05:33:58.185Z,5.03
2023-04-09T05:34:56.426Z,5.07
2023-04-09T05:36:06.656Z,5.09
2023-04-09T05:36:56.396Z,5.13
2023-04-09T05:37:56.541Z,5.15
2023-04-09T05:38:56.400Z,5.21
2023-04-09T05:39:56.481Z,5.27
2023-04-09T05:40:56.422Z,5.27
2023-04-09T05:41:56.553Z,5.31
2023-04-09T05:42:56.402Z,5.31
2023-04-09T05:43:57.458Z,5.40
2023-04-09T05:44:56.293Z,5.43
2023-04-09T05:45:56.313Z,5.58
2023-04-09T05:46:56.585Z,5.61
2023-04-09T05:47:56.499Z,5.63
2023-04-09T05:48:56.278Z,5.67
2023-04-09T05:49:56.246Z,5.64
2023-04-09T05:50:56.300Z,5.58
2023-04-09T05:51:56.298Z,5.60
2023-04-09T05:52:56.308Z,5.64
2023-04-09T05:53:56.213Z,5.74
2023-04-09T05:54:56.925Z,5.83
2023-04-09T05:55:56.259Z,5.86
2023-04-09T05:56:56.190Z,5.83
2023-04-09T05:57:56.218Z,5.83
2023-04-09T05:58:56.134Z,5.76
2023-04-09T05:59:56.092Z,5.83
2023-04-09T06:00:56.375Z,5.83
2023-04-09T06:01:56.144Z,5.85
2023-04-09T06:02:56.183Z,5.85
2023-04-09T06:03:58.541Z,5.89
2023-04-09T06:04:56.254Z,6.00
2023-04-09T06:05:56.062Z,6.06
2023-04-09T06:08:19.199Z,6.19
2023-04-09T06:09:18.866Z,6.15
2023-04-09T06:10:18.808Z,6.17
2023-04-09T06:11:23.070Z,6.11
2023-04-09T06:12:18.823Z,6.17
2023-04-09T06:13:19.264Z,6.19
2023-04-09T06:14:18.527Z,6.33
2023-04-09T06:15:20.664Z,6.36
2023-04-09T06:16:19.331Z,6.48
2023-04-09T06:17:20.117Z,6.54
2023-04-09T06:18:27.426Z,6.49
2023-04-09T06:19:18.626Z,6.49
2023-04-09T06:20:21.396Z,6.41
2023-04-09T06:21:18.447Z,6.41
2023-04-09T06:22:18.638Z,6.43
2023-04-09T06:23:18.583Z,6.51
2023-04-09T06:24:36.694Z,6.48
2023-04-09T06:25:21.834Z,6.52
2023-04-09T06:26:28.477Z,6.48
2023-04-09T06:27:18.414Z,6.49
2023-04-09T06:28:18.463Z,6.58
2023-04-09T06:29:19.214Z,6.59
2023-04-09T06:30:19.335Z,6.69
2023-04-09T06:32:51.068Z,6.87
2023-04-09T06:34:55.636Z,6.88
2023-04-09T06:36:01.830Z,6.84
2023-04-09T06:36:52.352Z,6.74
2023-04-09T06:39:24.500Z,6.77
2023-04-09T06:40:22.917Z,6.84
2023-04-09T06:41:20.931Z,6.98
2023-04-09T06:42:21.019Z,7.17
2023-04-09T06:43:28.019Z,7.53
2023-04-09T06:44:24.928Z,7.87
2023-04-09T06:45:20.968Z,8.16
2023-04-09T06:46:32.773Z,8.23
2023-04-09T06:47:20.852Z,8.40
2023-04-09T06:48:23.406Z,8.61
2023-04-09T06:49:21.053Z,8.86
2023-04-09T06:50:23.830Z,8.98
2023-04-09T06:51:22.502Z,9.05
2023-04-09T06:52:21.746Z,9.04
2023-04-09T06:53:30.895Z,8.94
2023-04-09T06:54:20.865Z,8.98
2023-04-09T06:55:20.701Z,8.92
2023-04-09T06:56:20.757Z,8.95
2023-04-09T06:57:20.725Z,8.92
2023-04-09T06:58:29.553Z,8.68
2023-04-09T06:59:20.643Z,8.43
2023-04-09T07:00:20.638Z,8.33
2023-04-09T07:01:20.695Z,8.41
2023-04-09T07:02:21.386Z,8.59
2023-04-09T07:03:21.715Z,8.81
2023-04-09T07:04:32.888Z,8.83
2023-04-09T07:05:20.977Z,8.95
2023-04-09T07:06:21.052Z,9.11
2023-04-09T07:07:20.648Z,9.20
2023-04-09T07:08:20.833Z,9.35
2023-04-09T07:09:20.781Z,9.36
2023-04-09T07:10:20.768Z,9.26
2023-04-09T07:11:22.035Z,9.36
2023-04-09T07:12:20.504Z,9.57
2023-04-09T07:13:20.836Z,9.75
2023-04-09T07:14:24.398Z,9.91
2023-04-09T07:15:42.489Z,10.02
2023-04-09T07:16:22.421Z,10.22
2023-04-09T07:17:20.620Z,10.47
2023-04-09T07:18:21.562Z,10.59
2023-04-09T07:19:32.391Z,10.51
2023-04-09T07:21:45.486Z,10.02
2023-04-09T07:22:40.496Z,10.07
2023-04-09T07:23:40.184Z,10.23
2023-04-09T07:24:40.231Z,10.51
2023-04-09T07:25:40.465Z,10.73
2023-04-09T07:26:40.164Z,10.94
2023-04-09T07:27:48.735Z,10.96
2023-04-09T07:28:51.948Z,10.88
2023-04-09T07:29:40.181Z,10.81
2023-04-09T07:30:47.603Z,10.82
2023-04-09T07:31:40.089Z,11.02
2023-04-09T07:32:40.369Z,11.02
2023-04-09T07:33:40.029Z,11.07
2023-04-09T07:34:40.042Z,10.91
2023-04-09T07:35:40.027Z,10.74
2023-04-09T07:36:41.476Z,10.42
2023-04-09T07:37:45.674Z,10.09
2023-04-09T07:38:40.939Z,9.79
2023-04-09T07:39:41.741Z,9.76
2023-04-09T07:40:40.697Z,9.84
2023-04-09T07:41:39.940Z,10.07
2023-04-09T07:42:41.535Z,10.18
2023-04-09T07:43:39.931Z,10.29
2023-04-09T07:44:39.874Z,10.52
2023-04-09T07:45:39.836Z,10.66
2023-04-09T07:46:40.040Z,10.78
2023-04-09T07:47:39.957Z,10.74
2023-04-09T07:48:41.271Z,10.73
2023-04-09T07:49:39.783Z,10.78
2023-04-09T07:50:47.807Z,11.02
2023-04-09T07:51:40.526Z,11.28
2023-04-09T07:52:40.414Z,11.40
2023-04-09T07:53:51.341Z,11.40
2023-04-09T07:54:40.304Z,11.46
2023-04-09T07:55:40.540Z,11.49
2023-04-09T07:56:41.775Z,11.52
2023-04-09T07:57:39.691Z,11.61
2023-04-09T07:58:52.368Z,11.57
2023-04-09T07:59:39.763Z,11.62
2023-04-09T08:00:39.677Z,11.67
2023-04-09T08:01:39.786Z,11.67
2023-04-09T08:02:39.747Z,11.67
2023-04-09T08:03:40.218Z,11.70
2023-04-09T08:04:39.642Z,11.64
2023-04-09T08:05:39.678Z,11.52
2023-04-09T08:06:39.574Z,11.46
2023-04-09T08:07:39.549Z,11.40
2023-04-09T08:08:51.162Z,11.39
2023-04-09T08:09:39.863Z,11.58
2023-04-09T08:10:39.710Z,11.88
2023-04-09T08:11:39.763Z,11.95
2023-04-09T08:12:39.543Z,11.94
2023-04-09T08:13:39.561Z,12.17
2023-04-09T08:14:39.608Z,12.38
2023-04-09T08:15:39.445Z,12.41
2023-04-09T08:16:39.481Z,12.29
2023-04-09T08:17:39.592Z,12.46
2023-04-09T08:18:39.598Z,12.56
2023-04-09T08:19:41.614Z,12.83
2023-04-09T08:20:39.734Z,13.29
2023-04-09T08:21:39.411Z,13.41
2023-04-09T08:22:39.909Z,13.45
2023-04-09T08:23:39.530Z,13.36
2023-04-09T08:24:39.475Z,13.52
2023-04-09T08:25:39.465Z,13.78
2023-04-09T08:26:39.390Z,14.00
2023-04-09T08:27:39.274Z,13.96
2023-04-09T08:28:39.610Z,14.09
2023-04-09T08:29:39.375Z,14.17
2023-04-09T08:30:39.491Z,14.21
2023-04-09T08:31:39.460Z,14.27
2023-04-09T08:32:39.284Z,14.12
2023-04-09T08:33:39.310Z,14.18
2023-04-09T08:34:39.281Z,14.47
2023-04-09T08:35:39.458Z,14.69
2023-04-09T08:36:39.228Z,14.72
2023-04-09T08:37:39.435Z,14.46
2023-04-09T08:38:39.151Z,14.42
2023-04-09T08:39:39.167Z,14.52
2023-04-09T08:40:39.255Z,14.47
2023-04-09T08:41:39.247Z,14.39
2023-04-09T08:42:39.203Z,14.47
2023-04-09T08:43:56.243Z,14.83
2023-04-09T08:44:40.774Z,15.09
2023-04-09T08:45:39.148Z,15.25
2023-04-09T08:46:39.163Z,15.20
2023-04-09T08:47:44.272Z,15.29
2023-04-09T08:49:49.528Z,14.89
2023-04-09T08:50:49.396Z,14.73
2023-04-09T08:51:49.410Z,14.89
2023-04-09T08:52:49.444Z,14.95
2023-04-09T08:53:49.387Z,15.02
2023-04-09T08:54:49.411Z,15.20
2023-04-09T08:55:49.360Z,15.62
2023-04-09T08:56:49.362Z,15.74
2023-04-09T08:57:49.365Z,15.74
2023-04-09T08:58:49.249Z,15.75
2023-04-09T08:59:49.253Z,15.72
2023-04-09T09:00:49.243Z,15.68
2023-04-09T09:01:49.216Z,15.41
2023-04-09T09:02:49.293Z,15.28
2023-04-09T09:03:49.191Z,14.77
2023-04-09T09:04:49.211Z,14.54
2023-04-09T09:05:49.119Z,14.78
2023-04-09T09:06:49.140Z,14.88
2023-04-09T09:07:49.091Z,15.49
2023-04-09T09:08:49.182Z,16.07
2023-04-09T09:09:49.151Z,16.75
2023-04-09T09:10:49.155Z,17.19
2023-04-09T09:11:49.114Z,17.51
2023-04-09T09:12:49.059Z,17.55
2023-04-09T09:13:49.107Z,17.25
2023-04-09T09:14:49.099Z,17.51
2023-04-09T09:15:49.037Z,17.74
2023-04-09T09:16:49.137Z,17.54
2023-04-09T09:17:49.113Z,17.54
2023-04-09T09:18:49.002Z,17.46
2023-04-09T09:19:49.204Z,17.30
2023-04-09T09:20:48.926Z,16.75
2023-04-09T09:21:48.994Z,16.09
2023-04-09T09:22:49.185Z,15.31
2023-04-09T09:23:49.947Z,14.88
2023-04-09T09:24:50.353Z,14.86
2023-04-09T09:25:48.854Z,14.99
2023-04-09T09:26:48.891Z,15.44
2023-04-09T09:27:48.849Z,15.34
2023-04-09T09:28:48.829Z,15.09
2023-04-09T09:29:48.871Z,15.01
2023-04-09T09:30:49.371Z,14.98
2023-04-09T09:31:48.790Z,15.25
2023-04-09T09:32:48.797Z,15.09
2023-04-09T09:33:48.762Z,15.36
2023-04-09T09:34:48.838Z,15.49
2023-04-09T09:35:48.877Z,15.27
2023-04-09T09:36:48.746Z,15.11
2023-04-09T09:37:48.839Z,14.60
2023-04-09T09:38:48.781Z,14.29
2023-04-09T09:39:48.759Z,14.52
2023-04-09T09:40:48.663Z,15.06
2023-04-09T09:41:48.666Z,15.56
2023-04-09T09:42:48.622Z,15.87
2023-04-09T09:43:48.685Z,15.97
2023-04-09T09:44:48.646Z,15.68
2023-04-09T09:45:48.640Z,15.50
2023-04-09T09:46:48.617Z,15.60
2023-04-09T09:47:48.598Z,15.28
2023-04-09T09:48:48.549Z,14.92
2023-04-09T09:49:48.592Z,15.01
2023-04-09T09:50:48.530Z,15.09
2023-04-09T09:51:48.559Z,15.14
2023-04-09T09:52:48.500Z,15.31
2023-04-09T09:53:49.845Z,15.32
2023-04-09T09:54:48.517Z,15.57
2023-04-09T09:55:48.539Z,15.74
2023-04-09T09:56:48.474Z,15.74
2023-04-09T09:57:48.462Z,15.71
2023-04-09T09:58:48.414Z,15.72
2023-04-09T09:59:48.419Z,15.53
2023-04-09T10:00:48.467Z,15.50
2023-04-09T10:01:48.653Z,15.62
2023-04-09T10:02:49.667Z,15.68
2023-04-09T10:03:48.350Z,15.64
2023-04-09T10:04:49.603Z,15.53
2023-04-09T10:05:49.031Z,15.29
2023-04-09T10:06:48.358Z,15.11
2023-04-09T10:07:48.296Z,15.57
2023-04-09T10:08:48.974Z,16.08
2023-04-09T10:09:48.266Z,16.38
2023-04-09T10:10:48.256Z,16.56
2023-04-09T10:11:48.256Z,16.88
2023-04-09T10:12:48.263Z,17.22
2023-04-09T10:13:48.445Z,17.19
2023-04-09T10:14:48.384Z,16.97
2023-04-09T10:15:57.877Z,16.56
2023-04-09T10:16:48.192Z,16.20
2023-04-09T10:17:48.190Z,15.59
2023-04-09T10:18:48.140Z,15.35
2023-04-09T10:19:48.145Z,15.23
2023-04-09T10:20:48.093Z,15.07
2023-04-09T10:21:48.090Z,15.36
2023-04-09T10:22:48.094Z,15.72
2023-04-09T10:23:48.330Z,15.86
2023-04-09T10:24:48.105Z,16.00
2023-04-09T10:25:48.054Z,15.97
2023-04-09T10:26:48.018Z,16.14
2023-04-09T10:27:48.013Z,16.00
2023-04-09T10:28:47.997Z,16.21
2023-04-09T10:29:47.986Z,16.42
2023-04-09T10:30:47.968Z,16.24
2023-04-09T10:31:47.984Z,16.20
2023-04-09T10:32:47.995Z,16.34
2023-04-09T10:33:48.022Z,16.21
2023-04-09T10:34:47.922Z,16.14
2023-04-09T10:35:47.936Z,16.38
2023-04-09T10:36:47.875Z,16.58
2023-04-09T10:37:47.856Z,16.73
2023-04-09T10:38:47.851Z,16.85
2023-04-09T10:39:47.877Z,17.22
2023-04-09T10:40:47.855Z,17.34
2023-04-09T10:41:47.944Z,16.78
2023-04-09T10:42:47.984Z,16.86
2023-04-09T10:43:47.840Z,16.96
2023-04-09T10:44:47.793Z,16.61
2023-04-09T10:45:47.804Z,16.41
2023-04-09T10:46:47.880Z,16.28
2023-04-09T10:47:47.829Z,16.20
2023-04-09T10:48:47.732Z,16.28
2023-04-09T10:49:47.796Z,16.31
2023-04-09T10:50:47.766Z,16.61
2023-04-09T10:51:47.695Z,16.81
2023-04-09T10:52:47.760Z,16.97
2023-04-09T10:53:47.659Z,16.91
2023-04-09T10:54:47.667Z,16.86
2023-04-09T10:55:47.687Z,16.83
2023-04-09T10:56:47.658Z,16.82
2023-04-09T10:57:47.621Z,16.68
2023-04-09T10:58:47.617Z,15.96
2023-04-09T10:59:47.608Z,15.53
2023-04-09T11:00:47.586Z,14.83
2023-04-09T11:01:47.612Z,14.39
2023-04-09T11:02:47.711Z,14.40
2023-04-09T11:03:47.642Z,14.54
2023-04-09T11:04:47.560Z,14.72
2023-04-09T11:05:47.561Z,14.92
2023-04-09T11:06:47.549Z,15.32
2023-04-09T11:07:47.539Z,15.65
2023-04-09T11:08:47.469Z,16.02
2023-04-09T11:09:47.459Z,16.24
2023-04-09T11:10:48.543Z,16.35
2023-04-09T11:11:47.450Z,16.27
2023-04-09T11:12:47.510Z,16.14
2023-04-09T11:13:47.423Z,16.23
2023-04-09T11:14:47.389Z,16.01
2023-04-09T11:15:47.405Z,15.93
2023-04-09T11:16:47.436Z,15.82
2023-04-09T11:17:47.437Z,15.28
2023-04-09T11:18:47.428Z,15.20
2023-04-09T11:19:47.290Z,15.13
2023-04-09T11:20:47.358Z,15.11
2023-04-09T11:21:47.264Z,15.10
2023-04-09T11:22:47.318Z,15.03
2023-04-09T11:23:47.281Z,14.99
2023-04-09T11:24:47.266Z,14.99
2023-04-09T11:25:47.223Z,15.34
2023-04-09T11:26:47.299Z,15.65
2023-04-09T11:27:47.254Z,15.87
2023-04-09T11:28:47.198Z,16.11
2023-04-09T11:29:47.209Z,15.93
2023-04-09T11:30:47.207Z,15.97
2023-04-09T11:31:47.223Z,16.09
2023-04-09T11:32:47.148Z,16.12
2023-04-09T11:33:47.125Z,15.94
2023-04-09T11:34:47.159Z,15.57
2023-04-09T11:35:47.186Z,15.67
2023-04-09T11:36:47.133Z,15.96
2023-04-09T11:37:47.136Z,16.14
2023-04-09T11:38:47.074Z,16.05
2023-04-09T11:39:47.073Z,16.12
2023-04-09T11:40:47.026Z,15.89
2023-04-09T11:41:47.015Z,15.84
2023-04-09T11:42:47.055Z,15.87
2023-04-09T11:43:47.005Z,16.28
2023-04-09T11:44:47.023Z,16.42
2023-04-09T11:45:47.027Z,16.64
2023-04-09T11:46:47.075Z,16.50
2023-04-09T11:47:46.952Z,16.21
2023-04-09T11:48:46.963Z,16.09
2023-04-09T11:49:46.889Z,15.90
2023-04-09T11:50:46.891Z,16.09
2023-04-09T11:51:46.919Z,16.20
2023-04-09T11:52:46.881Z,16.34
2023-04-09T11:53:46.861Z,16.48
2023-04-09T11:54:46.873Z,16.57
2023-04-09T11:55:46.817Z,16.76
2023-04-09T11:56:46.895Z,16.88
2023-04-09T11:57:46.834Z,17.25
2023-04-09T11:58:46.810Z,17.59
2023-04-09T11:59:46.802Z,17.96
2023-04-09T12:00:46.807Z,17.89
2023-04-09T12:01:46.821Z,17.58
2023-04-09T12:02:46.976Z,17.55
2023-04-09T12:03:46.845Z,17.62
2023-04-09T12:04:46.763Z,17.75
2023-04-09T12:05:50.524Z,17.96
2023-04-09T12:06:46.716Z,17.79
2023-04-09T12:07:55.590Z,18.20
2023-04-09T12:08:47.643Z,18.35
2023-04-09T12:09:46.637Z,18.12
2023-04-09T12:10:46.731Z,17.89
2023-04-09T12:11:46.633Z,18.10
2023-04-09T12:12:46.580Z,17.96
2023-04-09T12:13:46.603Z,17.93
2023-04-09T12:14:46.592Z,18.18
2023-04-09T12:15:46.567Z,18.11
2023-04-09T12:16:46.586Z,18.03
2023-04-09T12:17:46.548Z,17.75
2023-04-09T12:18:46.582Z,17.48
2023-04-09T12:19:46.533Z,17.74
2023-04-09T12:20:46.492Z,17.64
2023-04-09T12:21:46.541Z,18.32
2023-04-09T12:22:46.436Z,19.19
2023-04-09T12:23:46.530Z,20.02
2023-04-09T12:24:46.461Z,20.52
2023-04-09T12:25:46.457Z,20.98
2023-04-09T12:26:46.462Z,21.09
2023-04-09T12:27:46.426Z,21.14
2023-04-09T12:28:46.381Z,21.34
2023-04-09T12:29:46.351Z,21.31
2023-04-09T12:30:46.396Z,20.70
2023-04-09T12:31:46.663Z,20.67
2023-04-09T12:32:46.435Z,20.79
2023-04-09T12:33:46.348Z,20.98
2023-04-09T12:34:46.272Z,20.89
2023-04-09T12:35:46.286Z,19.74
2023-04-09T12:36:46.332Z,19.91
2023-04-09T12:37:46.244Z,19.66
2023-04-09T12:38:46.253Z,19.54
2023-04-09T12:39:46.234Z,19.40
2023-04-09T12:40:46.203Z,19.73
2023-04-09T12:41:46.202Z,19.10
2023-04-09T12:42:46.195Z,19.28
2023-04-09T12:43:46.226Z,19.61
2023-04-09T12:44:46.156Z,19.78
2023-04-09T12:45:46.206Z,19.96
2023-04-09T12:46:46.231Z,20.35
2023-04-09T12:47:46.261Z,20.05
2023-04-09T12:48:46.209Z,19.40
2023-04-09T12:49:46.203Z,18.75
2023-04-09T12:50:46.113Z,19.22
2023-04-09T12:51:46.105Z,19.18
2023-04-09T12:52:46.058Z,18.76
2023-04-09T12:53:46.063Z,18.27
2023-04-09T12:54:47.046Z,18.60
2023-04-09T12:55:46.016Z,18.95
2023-04-09T12:56:46.098Z,19.51
2023-04-09T12:57:45.973Z,19.77
2023-04-09T12:58:46.000Z,18.80
2023-04-09T12:59:45.996Z,17.89
2023-04-09T13:00:45.955Z,17.34
2023-04-09T13:01:46.046Z,17.19
2023-04-09T13:02:46.049Z,17.33
2023-04-09T13:03:46.246Z,17.79
2023-04-09T13:04:45.933Z,18.30
2023-04-09T13:05:45.860Z,18.73
2023-04-09T13:06:45.881Z,19.28
2023-04-09T13:07:45.864Z,19.43
2023-04-09T13:08:45.812Z,19.71
2023-04-09T13:09:45.871Z,19.86
2023-04-09T13:10:45.860Z,19.77
2023-04-09T13:11:45.781Z,19.07
2023-04-09T13:12:45.803Z,18.62
2023-04-09T13:13:45.787Z,18.23
2023-04-09T13:14:45.785Z,18.45
2023-04-09T13:15:45.762Z,18.54